Terminal Aerodrome Forecast
Issued by NWS

Home | Current Version | Previous Version | Text Only | Print | Product List | Glossary On
Versions: 1 2 3 4 5 6 7 8 9 10 11 12 13 14 15 16 17 18 19 20 21 22 23 24 25 26 27
638
FTUS41 KGYX 082333
TAFAUG
TAF
KAUG 082333Z 0900/0924 27007KT P6SM SCT035 BKN080
      TEMPO 0900/0902 -SHSN BKN035
     FM091300 30015G25KT P6SM SCT040=

USA.gov is the U.S. government's official web portal to all federal, state and local government web resources and services.